sensor_id;sensor_type;location;lat;lon;timestamp;temperature;humidity
5850;DHT22;2951;47.712;9.400;2024-01-15T00:00:40;1.40;99.90
5850;DHT22;2951;47.712;9.400;2024-01-15T00:03:07;1.30;99.90
5850;DHT22;2951;47.712;9.400;2024-01-15T00:05:34;1.40;99.90
5850;DHT22;2951;47.712;9.400;2024-01-15T00:08:04;1.30;99.90
5850;DHT22;2951;47.712;9.400;2024-01-15T00:10:31;1.30;99.90
5850;DHT22;2951;47.712;9.400;2024-01-15T00:12:59;1.30;99.90
5850;DHT22;2951;47.712;9.400;2024-01-15T00:15:30;1.30;99.90
5850;DHT22;2951;47.712;9.400;2024-01-15T00:18:00;1.40;99.90
5850;DHT22;2951;47.712;9.400;2024-01-15T00:20:27;1.40;99.90
5850;DHT22;2951;47.712;9.400;2024-01-15T00:22:56;1.40;99.90
5850;DHT22;2951;47.712;9.400;2024-01-15T00:25:28;1.40;99.90
5850;DHT22;2951;47.712;9.400;2024-01-15T00:27:55;1.50;99.90
5850;DHT22;2951;47.712;9.400;2024-01-15T00:30:23;1.60;99.90
5850;DHT22;2951;47.712;9.400;2024-01-15T00:32:50;1.50;99.90
5850;DHT22;2951;47.712;9.400;2024-01-15T00:35:16;1.60;99.90
5850;DHT22;2951;47.712;9.400;2024-01-15T00:37:43;1.60;99.90
5850;DHT22;2951;47.712;9.400;2024-01-15T00:40:12;1.60;99.90
5850;DHT22;2951;47.712;9.400;2024-01-15T00:42:40;1.60;99.90
5850;DHT22;2951;47.712;9.400;2024-01-15T00:45:06;1.50;99.90
5850;DHT22;2951;47.712;9.400;2024-01-15T00:47:34;1.50;99.90
5850;DHT22;2951;47.712;9.400;2024-01-15T00:50:01;1.40;99.90
5850;DHT22;2951;47.712;9.400;2024-01-15T00:52:28;1.40;99.90
5850;DHT22;2951;47.712;9.400;2024-01-15T00:54:56;1.40;99.90
5850;DHT22;2951;47.712;9.400;2024-01-15T00:57:24;1.40;99.90
5850;DHT22;2951;47.712;9.400;2024-01-15T00:59:51;1.40;99.90
5850;DHT22;2951;47.712;9.400;2024-01-15T01:02:21;1.40;99.90
5850;DHT22;2951;47.712;9.400;2024-01-15T01:04:48;1.40;99.90
5850;DHT22;2951;47.712;9.400;2024-01-15T01:07:16;1.40;99.90
5850;DHT22;2951;47.712;9.400;2024-01-15T01:09:43;1.60;99.90
5850;DHT22;2951;47.712;9.400;2024-01-15T01:12:10;1.70;99.90
5850;DHT22;2951;47.712;9.400;2024-01-15T01:14:38;1.70;99.90
5850;DHT22;2951;47.712;9.400;2024-01-15T01:17:06;1.70;99.90
5850;DHT22;2951;47.712;9.400;2024-01-15T01:19:33;1.70;99.90
5850;DHT22;2951;47.712;9.400;2024-01-15T01:22:09;1.80;99.90
5850;DHT22;2951;47.712;9.400;2024-01-15T01:24:36;1.80;99.90
5850;DHT22;2951;47.712;9.400;2024-01-15T01:27:03;1.80;99.90
5850;DHT22;2951;47.712;9.400;2024-01-15T01:29:32;1.70;99.90
5850;DHT22;2951;47.712;9.400;2024-01-15T01:31:59;1.80;99.90
5850;DHT22;2951;47.712;9.400;2024-01-15T01:34:27;1.80;99.90
5850;DHT22;2951;47.712;9.400;2024-01-15T01:36:59;1.80;99.90
5850;DHT22;2951;47.712;9.400;2024-01-15T01:39:28;1.80;99.90
5850;DHT22;2951;47.712;9.400;2024-01-15T01:41:56;1.70;99.90
5850;DHT22;2951;47.712;9.400;2024-01-15T01:44:22;1.70;99.90
5850;DHT22;2951;47.712;9.400;2024-01-15T01:46:49;1.70;99.90
5850;DHT22;2951;47.712;9.400;2024-01-15T01:49:16;1.60;99.90
5850;DHT22;2951;47.712;9.400;2024-01-15T01:51:43;1.60;99.90
5850;DHT22;2951;47.712;9.400;2024-01-15T01:54:13;1.50;99.90
5850;DHT22;2951;47.712;9.400;2024-01-15T01:56:43;1.40;99.90
5850;DHT22;2951;47.712;9.400;2024-01-15T01:59:10;1.50;99.90
5850;DHT22;2951;47.712;9.400;2024-01-15T02:01:42;1.30;99.90
5850;DHT22;2951;47.712;9.400;2024-01-15T02:04:13;1.30;99.90
5850;DHT22;2951;47.712;9.400;2024-01-15T02:06:44;1.20;99.90
5850;DHT22;2951;47.712;9.400;2024-01-15T02:09:10;1.20;99.90
5850;DHT22;2951;47.712;9.400;2024-01-15T02:11:38;1.20;99.90
5850;DHT22;2951;47.712;9.400;2024-01-15T02:14:05;1.00;99.90
5850;DHT22;2951;47.712;9.400;2024-01-15T02:16:35;0.90;99.90
5850;DHT22;2951;47.712;9.400;2024-01-15T02:19:02;0.80;99.90
5850;DHT22;2951;47.712;9.400;2024-01-15T02:21:31;0.60;99.90
5850;DHT22;2951;47.712;9.400;2024-01-15T02:23:58;0.70;99.90
5850;DHT22;2951;47.712;9.400;2024-01-15T02:26:27;0.40;99.90
5850;DHT22;2951;47.712;9.400;2024-01-15T02:28:55;0.40;99.90
5850;DHT22;2951;47.712;9.400;2024-01-15T02:31:22;0.40;99.90
5850;DHT22;2951;47.712;9.400;2024-01-15T02:33:49;0.30;99.90
5850;DHT22;2951;47.712;9.400;2024-01-15T02:36:16;0.00;99.90
5850;DHT22;2951;47.712;9.400;2024-01-15T02:38:45;0.00;99.90
5850;DHT22;2951;47.712;9.400;2024-01-15T02:41:12;0.00;99.90
5850;DHT22;2951;47.712;9.400;2024-01-15T02:43:40;0.00;99.90
5850;DHT22;2951;47.712;9.400;2024-01-15T02:46:08;-0.10;99.90
5850;DHT22;2951;47.712;9.400;2024-01-15T02:48:35;-0.20;99.90
5850;DHT22;2951;47.712;9.400;2024-01-15T02:51:05;-0.20;99.90
5850;DHT22;2951;47.712;9.400;2024-01-15T02:53:32;-0.30;99.90
5850;DHT22;2951;47.712;9.400;2024-01-15T02:56:02;-0.40;99.90
5850;DHT22;2951;47.712;9.400;2024-01-15T02:58:28;-0.40;99.90
5850;DHT22;2951;47.712;9.400;2024-01-15T03:00:55;-0.40;99.90
5850;DHT22;2951;47.712;9.400;2024-01-15T03:03:22;-0.40;99.90
5850;DHT22;2951;47.712;9.400;2024-01-15T03:05:49;-0.40;99.90
5850;DHT22;2951;47.712;9.400;2024-01-15T03:08:16;-0.40;99.90
5850;DHT22;2951;47.712;9.400;2024-01-15T03:10:49;-0.40;99.90
5850;DHT22;2951;47.712;9.400;2024-01-15T03:13:18;-0.50;99.90
5850;DHT22;2951;47.712;9.400;2024-01-15T03:15:49;-0.50;99.90
5850;DHT22;2951;47.712;9.400;2024-01-15T03:18:16;-0.60;99.90
5850;DHT22;2951;47.712;9.400;2024-01-15T03:20:48;-0.60;99.90
5850;DHT22;2951;47.712;9.400;2024-01-15T03:23:15;-0.70;99.90
5850;DHT22;2951;47.712;9.400;2024-01-15T03:25:41;-0.60;99.90
5850;DHT22;2951;47.712;9.400;2024-01-15T03:28:08;-0.70;99.90
5850;DHT22;2951;47.712;9.400;2024-01-15T03:30:35;-0.70;99.90
5850;DHT22;2951;47.712;9.400;2024-01-15T03:33:03;-0.80;99.90
5850;DHT22;2951;47.712;9.400;2024-01-15T03:35:35;-0.80;99.90
5850;DHT22;2951;47.712;9.400;2024-01-15T03:38:02;-0.80;99.90
5850;DHT22;2951;47.712;9.400;2024-01-15T03:40:29;-0.90;99.90
5850;DHT22;2951;47.712;9.400;2024-01-15T03:43:00;-0.90;99.90
5850;DHT22;2951;47.712;9.400;2024-01-15T03:45:26;-0.80;99.90
5850;DHT22;2951;47.712;9.400;2024-01-15T03:47:53;-0.80;99.90
5850;DHT22;2951;47.712;9.400;2024-01-15T03:50:21;-0.70;99.90
5850;DHT22;2951;47.712;9.400;2024-01-15T03:52:49;-0.60;99.90
5850;DHT22;2951;47.712;9.400;2024-01-15T03:55:17;-0.60;99.90
5850;DHT22;2951;47.712;9.400;2024-01-15T03:57:46;-0.40;99.90
5850;DHT22;2951;47.712;9.400;2024-01-15T04:00:14;-0.50;99.90
5850;DHT22;2951;47.712;9.400;2024-01-15T04:02:41;-0.50;99.90
5850;DHT22;2951;47.712;9.400;2024-01-15T04:05:10;-0.40;99.90
5850;DHT22;2951;47.712;9.400;2024-01-15T04:07:38;-0.40;99.90
5850;DHT22;2951;47.712;9.400;2024-01-15T04:10:05;-0.40;99.90
5850;DHT22;2951;47.712;9.400;2024-01-15T04:12:32;-0.40;99.90
5850;DHT22;2951;47.712;9.400;2024-01-15T04:14:59;-0.30;99.90
5850;DHT22;2951;47.712;9.400;2024-01-15T04:17:28;-0.20;99.90
5850;DHT22;2951;47.712;9.400;2024-01-15T04:19:55;0.00;99.90
5850;DHT22;2951;47.712;9.400;2024-01-15T04:22:22;0.00;99.90
5850;DHT22;2951;47.712;9.400;2024-01-15T04:24:49;0.00;99.90
5850;DHT22;2951;47.712;9.400;2024-01-15T04:27:17;0.00;99.90
5850;DHT22;2951;47.712;9.400;2024-01-15T04:29:44;0.00;99.90
5850;DHT22;2951;47.712;9.400;2024-01-15T04:32:11;0.10;99.90
5850;DHT22;2951;47.712;9.400;2024-01-15T04:34:39;-0.20;99.90
5850;DHT22;2951;47.712;9.400;2024-01-15T04:37:06;-0.10;99.90
5850;DHT22;2951;47.712;9.400;2024-01-15T04:39:33;0.00;99.90
5850;DHT22;2951;47.712;9.400;2024-01-15T04:42:02;0.00;99.90
5850;DHT22;2951;47.712;9.400;2024-01-15T04:44:31;0.00;99.90
5850;DHT22;2951;47.712;9.400;2024-01-15T04:46:58;0.20;99.90
5850;DHT22;2951;47.712;9.400;2024-01-15T04:49:25;0.30;99.90
5850;DHT22;2951;47.712;9.400;2024-01-15T04:51:56;0.20;99.90
5850;DHT22;2951;47.712;9.400;2024-01-15T04:54:23;0.20;99.90
5850;DHT22;2951;47.712;9.400;2024-01-15T04:56:53;0.30;99.90
5850;DHT22;2951;47.712;9.400;2024-01-15T04:59:21;0.20;99.90
5850;DHT22;2951;47.712;9.400;2024-01-15T05:01:50;0.20;99.90
5850;DHT22;2951;47.712;9.400;2024-01-15T05:04:17;0.20;99.90
5850;DHT22;2951;47.712;9.400;2024-01-15T05:06:44;0.10;99.90
5850;DHT22;2951;47.712;9.400;2024-01-15T05:09:11;0.20;99.90
5850;DHT22;2951;47.712;9.400;2024-01-15T05:11:42;0.20;99.90
5850;DHT22;2951;47.712;9.400;2024-01-15T05:14:12;0.10;99.90
5850;DHT22;2951;47.712;9.400;2024-01-15T05:16:40;0.10;99.90
5850;DHT22;2951;47.712;9.400;2024-01-15T05:19:07;0.10;99.90
5850;DHT22;2951;47.712;9.400;2024-01-15T05:21:35;0.10;99.90
5850;DHT22;2951;47.712;9.400;2024-01-15T05:24:01;0.20;99.90
5850;DHT22;2951;47.712;9.400;2024-01-15T05:26:28;0.40;99.90
5850;DHT22;2951;47.712;9.400;2024-01-15T05:28:56;0.20;99.90
5850;DHT22;2951;47.712;9.400;2024-01-15T05:31:23;0.00;99.90
5850;DHT22;2951;47.712;9.400;2024-01-15T05:33:51;0.00;99.90
5850;DHT22;2951;47.712;9.400;2024-01-15T05:36:18;0.30;99.90
5850;DHT22;2951;47.712;9.400;2024-01-15T05:38:45;0.30;99.90
5850;DHT22;2951;47.712;9.400;2024-01-15T05:41:12;0.10;99.90
5850;DHT22;2951;47.712;9.400;2024-01-15T05:43:39;0.20;99.90
5850;DHT22;2951;47.712;9.400;2024-01-15T05:46:07;0.30;99.90
5850;DHT22;2951;47.712;9.400;2024-01-15T05:48:35;0.50;99.90
5850;DHT22;2951;47.712;9.400;2024-01-15T05:51:01;0.40;99.90
5850;DHT22;2951;47.712;9.400;2024-01-15T05:53:28;0.40;99.90
5850;DHT22;2951;47.712;9.400;2024-01-15T05:55:58;0.50;99.90
5850;DHT22;2951;47.712;9.400;2024-01-15T05:58:25;0.40;99.90
5850;DHT22;2951;47.712;9.400;2024-01-15T06:00:52;0.60;99.90
5850;DHT22;2951;47.712;9.400;2024-01-15T06:03:20;0.40;99.90
5850;DHT22;2951;47.712;9.400;2024-01-15T06:05:47;0.30;99.90
5850;DHT22;2951;47.712;9.400;2024-01-15T06:08:14;0.20;99.90
5850;DHT22;2951;47.712;9.400;2024-01-15T06:10:41;0.30;99.90
5850;DHT22;2951;47.712;9.400;2024-01-15T06:13:09;0.20;99.90
5850;DHT22;2951;47.712;9.400;2024-01-15T06:15:38;0.30;99.90
5850;DHT22;2951;47.712;9.400;2024-01-15T06:18:05;0.20;99.90
5850;DHT22;2951;47.712;9.400;2024-01-15T06:20:32;0.20;99.90
5850;DHT22;2951;47.712;9.400;2024-01-15T06:23:00;0.30;99.90
5850;DHT22;2951;47.712;9.400;2024-01-15T06:25:26;0.30;99.90
5850;DHT22;2951;47.712;9.400;2024-01-15T06:27:53;0.40;99.90
5850;DHT22;2951;47.712;9.400;2024-01-15T06:30:20;0.50;99.90
5850;DHT22;2951;47.712;9.400;2024-01-15T06:32:48;0.40;99.90
5850;DHT22;2951;47.712;9.400;2024-01-15T06:35:16;0.40;99.90
5850;DHT22;2951;47.712;9.400;2024-01-15T06:37:43;0.30;99.90
5850;DHT22;2951;47.712;9.400;2024-01-15T06:40:10;0.30;99.90
5850;DHT22;2951;47.712;9.400;2024-01-15T06:42:37;0.40;99.90
5850;DHT22;2951;47.712;9.400;2024-01-15T06:45:04;0.40;99.90
5850;DHT22;2951;47.712;9.400;2024-01-15T06:47:31;0.40;99.90
5850;DHT22;2951;47.712;9.400;2024-01-15T06:49:59;0.40;99.90
5850;DHT22;2951;47.712;9.400;2024-01-15T06:52:25;0.40;99.90
5850;DHT22;2951;47.712;9.400;2024-01-15T06:54:56;0.50;99.90
5850;DHT22;2951;47.712;9.400;2024-01-15T06:57:23;0.50;99.90
5850;DHT22;2951;47.712;9.400;2024-01-15T06:59:50;0.50;99.90
5850;DHT22;2951;47.712;9.400;2024-01-15T07:02:18;0.50;99.90
5850;DHT22;2951;47.712;9.400;2024-01-15T07:04:45;0.50;99.90
5850;DHT22;2951;47.712;9.400;2024-01-15T07:07:12;0.50;99.90
5850;DHT22;2951;47.712;9.400;2024-01-15T07:09:45;0.50;99.90
5850;DHT22;2951;47.712;9.400;2024-01-15T07:12:36;0.50;99.90
5850;DHT22;2951;47.712;9.400;2024-01-15T07:15:08;0.50;99.90
5850;DHT22;2951;47.712;9.400;2024-01-15T07:17:38;0.50;99.90
5850;DHT22;2951;47.712;9.400;2024-01-15T07:20:25;0.50;99.90
5850;DHT22;2951;47.712;9.400;2024-01-15T07:22:53;0.50;99.90
5850;DHT22;2951;47.712;9.400;2024-01-15T07:25:20;0.50;99.90
5850;DHT22;2951;47.712;9.400;2024-01-15T07:27:47;0.50;99.90
5850;DHT22;2951;47.712;9.400;2024-01-15T07:30:14;0.50;99.90
5850;DHT22;2951;47.712;9.400;2024-01-15T07:32:49;0.50;99.90
5850;DHT22;2951;47.712;9.400;2024-01-15T07:35:17;0.60;99.90
5850;DHT22;2951;47.712;9.400;2024-01-15T07:37:47;0.50;99.90
5850;DHT22;2951;47.712;9.400;2024-01-15T07:40:14;0.50;99.90
5850;DHT22;2951;47.712;9.400;2024-01-15T07:42:57;0.60;99.90
5850;DHT22;2951;47.712;9.400;2024-01-15T07:45:47;0.60;99.90
5850;DHT22;2951;47.712;9.400;2024-01-15T07:48:15;0.60;99.90
5850;DHT22;2951;47.712;9.400;2024-01-15T07:50:42;0.70;99.90
5850;DHT22;2951;47.712;9.400;2024-01-15T07:53:08;0.60;99.90
5850;DHT22;2951;47.712;9.400;2024-01-15T07:55:35;0.60;99.90
5850;DHT22;2951;47.712;9.400;2024-01-15T07:58:02;0.60;99.90
5850;DHT22;2951;47.712;9.400;2024-01-15T08:00:40;0.60;99.90
5850;DHT22;2951;47.712;9.400;2024-01-15T08:03:06;0.60;99.90
5850;DHT22;2951;47.712;9.400;2024-01-15T08:05:33;0.60;99.90
5850;DHT22;2951;47.712;9.400;2024-01-15T08:08:00;0.60;99.90
5850;DHT22;2951;47.712;9.400;2024-01-15T08:10:27;0.60;99.90
5850;DHT22;2951;47.712;9.400;2024-01-15T08:12:53;0.60;99.90
5850;DHT22;2951;47.712;9.400;2024-01-15T08:15:26;0.60;99.90
5850;DHT22;2951;47.712;9.400;2024-01-15T08:17:56;0.60;99.90
5850;DHT22;2951;47.712;9.400;2024-01-15T08:20:23;0.60;99.90
5850;DHT22;2951;47.712;9.400;2024-01-15T08:22:50;0.60;99.90
5850;DHT22;2951;47.712;9.400;2024-01-15T08:25:17;0.60;99.90
5850;DHT22;2951;47.712;9.400;2024-01-15T08:27:44;0.60;99.90
5850;DHT22;2951;47.712;9.400;2024-01-15T08:30:11;0.60;99.90
5850;DHT22;2951;47.712;9.400;2024-01-15T08:32:38;0.60;99.90
5850;DHT22;2951;47.712;9.400;2024-01-15T08:35:08;0.70;99.90
5850;DHT22;2951;47.712;9.400;2024-01-15T08:37:36;0.80;99.90
5850;DHT22;2951;47.712;9.400;2024-01-15T08:40:03;0.70;99.90
5850;DHT22;2951;47.712;9.400;2024-01-15T08:42:31;0.70;99.90
5850;DHT22;2951;47.712;9.400;2024-01-15T08:44:57;0.70;99.90
5850;DHT22;2951;47.712;9.400;2024-01-15T08:47:24;0.70;99.90
5850;DHT22;2951;47.712;9.400;2024-01-15T08:49:52;0.70;99.90
5850;DHT22;2951;47.712;9.400;2024-01-15T08:52:19;0.70;99.90
5850;DHT22;2951;47.712;9.400;2024-01-15T08:54:46;0.90;99.90
5850;DHT22;2951;47.712;9.400;2024-01-15T08:57:13;0.80;99.90
5850;DHT22;2951;47.712;9.400;2024-01-15T08:59:40;0.80;99.90
5850;DHT22;2951;47.712;9.400;2024-01-15T09:02:08;0.80;99.90
5850;DHT22;2951;47.712;9.400;2024-01-15T09:04:36;0.80;99.90
5850;DHT22;2951;47.712;9.400;2024-01-15T09:07:02;0.80;99.90
5850;DHT22;2951;47.712;9.400;2024-01-15T09:09:29;0.80;99.90
5850;DHT22;2951;47.712;9.400;2024-01-15T09:11:56;0.80;99.90
5850;DHT22;2951;47.712;9.400;2024-01-15T09:14:23;0.80;99.90
5850;DHT22;2951;47.712;9.400;2024-01-15T09:19:54;0.80;99.90
5850;DHT22;2951;47.712;9.400;2024-01-15T09:22:21;0.80;99.90
5850;DHT22;2951;47.712;9.400;2024-01-15T09:24:48;0.80;99.90
5850;DHT22;2951;47.712;9.400;2024-01-15T09:27:15;0.90;99.90
5850;DHT22;2951;47.712;9.400;2024-01-15T09:29:42;0.90;99.90
5850;DHT22;2951;47.712;9.400;2024-01-15T09:32:10;0.90;99.90
5850;DHT22;2951;47.712;9.400;2024-01-15T09:34:37;0.90;99.90
5850;DHT22;2951;47.712;9.400;2024-01-15T09:37:04;0.90;99.90
5850;DHT22;2951;47.712;9.400;2024-01-15T09:39:31;0.90;99.90
5850;DHT22;2951;47.712;9.400;2024-01-15T09:41:58;1.00;99.90
5850;DHT22;2951;47.712;9.400;2024-01-15T09:44:25;1.00;99.90
5850;DHT22;2951;47.712;9.400;2024-01-15T09:46:53;1.00;99.90
5850;DHT22;2951;47.712;9.400;2024-01-15T09:49:22;1.00;99.90
5850;DHT22;2951;47.712;9.400;2024-01-15T09:51:50;1.10;99.90
5850;DHT22;2951;47.712;9.400;2024-01-15T09:54:24;1.10;99.90
5850;DHT22;2951;47.712;9.400;2024-01-15T09:56:54;1.10;99.90
5850;DHT22;2951;47.712;9.400;2024-01-15T09:59:21;1.30;99.90
5850;DHT22;2951;47.712;9.400;2024-01-15T10:01:50;1.30;99.90
5850;DHT22;2951;47.712;9.400;2024-01-15T10:04:16;1.40;99.90
5850;DHT22;2951;47.712;9.400;2024-01-15T10:06:45;1.40;99.90
5850;DHT22;2951;47.712;9.400;2024-01-15T10:09:12;1.40;99.90
5850;DHT22;2951;47.712;9.400;2024-01-15T10:11:41;1.60;99.90
5850;DHT22;2951;47.712;9.400;2024-01-15T10:14:08;1.50;99.90
5850;DHT22;2951;47.712;9.400;2024-01-15T10:16:40;1.60;99.90
5850;DHT22;2951;47.712;9.400;2024-01-15T10:19:07;1.50;99.90
5850;DHT22;2951;47.712;9.400;2024-01-15T10:21:34;1.40;99.90
5850;DHT22;2951;47.712;9.400;2024-01-15T10:24:02;1.40;99.90
5850;DHT22;2951;47.712;9.400;2024-01-15T10:26:32;1.50;99.90
5850;DHT22;2951;47.712;9.400;2024-01-15T10:28:58;1.50;99.90
5850;DHT22;2951;47.712;9.400;2024-01-15T10:31:25;1.40;99.90
5850;DHT22;2951;47.712;9.400;2024-01-15T10:34:09;1.50;99.90
5850;DHT22;2951;47.712;9.400;2024-01-15T10:36:36;1.50;99.90
5850;DHT22;2951;47.712;9.400;2024-01-15T10:39:06;1.60;99.90
5850;DHT22;2951;47.712;9.400;2024-01-15T10:41:33;1.60;99.90
5850;DHT22;2951;47.712;9.400;2024-01-15T10:43:59;1.70;99.90
5850;DHT22;2951;47.712;9.400;2024-01-15T10:46:28;1.70;99.90
5850;DHT22;2951;47.712;9.400;2024-01-15T10:48:55;1.70;99.90
5850;DHT22;2951;47.712;9.400;2024-01-15T10:51:22;1.70;99.90
5850;DHT22;2951;47.712;9.400;2024-01-15T10:53:53;1.80;99.90
5850;DHT22;2951;47.712;9.400;2024-01-15T10:56:20;1.70;99.90
5850;DHT22;2951;47.712;9.400;2024-01-15T10:58:48;1.80;99.90
5850;DHT22;2951;47.712;9.400;2024-01-15T11:01:16;1.90;99.90
5850;DHT22;2951;47.712;9.400;2024-01-15T11:03:43;1.90;99.90
5850;DHT22;2951;47.712;9.400;2024-01-15T11:06:20;1.90;99.90
5850;DHT22;2951;47.712;9.400;2024-01-15T11:08:51;1.80;99.90
5850;DHT22;2951;47.712;9.400;2024-01-15T11:11:18;1.70;99.90
5850;DHT22;2951;47.712;9.400;2024-01-15T11:13:48;1.70;99.90
5850;DHT22;2951;47.712;9.400;2024-01-15T11:16:20;1.70;99.90
5850;DHT22;2951;47.712;9.400;2024-01-15T11:21:25;1.40;99.90
5850;DHT22;2951;47.712;9.400;2024-01-15T11:23:57;1.50;99.90
5850;DHT22;2951;47.712;9.400;2024-01-15T11:28:57;1.40;99.90
5850;DHT22;2951;47.712;9.400;2024-01-15T11:31:27;1.40;99.90
5850;DHT22;2951;47.712;9.400;2024-01-15T11:33:53;1.30;99.90
5850;DHT22;2951;47.712;9.400;2024-01-15T11:36:56;1.30;99.90
5850;DHT22;2951;47.712;9.400;2024-01-15T11:41:57;1.30;99.90
5850;DHT22;2951;47.712;9.400;2024-01-15T11:44:29;1.40;99.90
5850;DHT22;2951;47.712;9.400;2024-01-15T11:47:00;1.30;99.90
5850;DHT22;2951;47.712;9.400;2024-01-15T11:51:59;1.20;99.90
5850;DHT22;2951;47.712;9.400;2024-01-15T11:54:28;1.20;99.90
5850;DHT22;2951;47.712;9.400;2024-01-15T11:56:56;1.30;99.90
5850;DHT22;2951;47.712;9.400;2024-01-15T11:59:23;1.20;99.90
5850;DHT22;2951;47.712;9.400;2024-01-15T12:01:50;1.30;99.90
5850;DHT22;2951;47.712;9.400;2024-01-15T12:04:20;1.50;99.90
5850;DHT22;2951;47.712;9.400;2024-01-15T12:06:47;1.60;99.90
5850;DHT22;2951;47.712;9.400;2024-01-15T12:09:14;1.90;99.90
5850;DHT22;2951;47.712;9.400;2024-01-15T12:11:42;2.00;99.90
5850;DHT22;2951;47.712;9.400;2024-01-15T12:14:15;2.10;99.90
5850;DHT22;2951;47.712;9.400;2024-01-15T12:16:47;2.00;99.90
5850;DHT22;2951;47.712;9.400;2024-01-15T12:19:16;2.20;99.90
5850;DHT22;2951;47.712;9.400;2024-01-15T12:21:44;2.30;99.90
5850;DHT22;2951;47.712;9.400;2024-01-15T12:24:11;2.40;99.90
5850;DHT22;2951;47.712;9.400;2024-01-15T12:26:38;2.30;99.90
5850;DHT22;2951;47.712;9.400;2024-01-15T12:29:08;2.00;99.90
5850;DHT22;2951;47.712;9.400;2024-01-15T12:31:35;2.10;99.90
5850;DHT22;2951;47.712;9.400;2024-01-15T12:34:02;2.30;99.90
5850;DHT22;2951;47.712;9.400;2024-01-15T12:36:32;2.50;99.90
5850;DHT22;2951;47.712;9.400;2024-01-15T12:38:59;2.50;99.90
5850;DHT22;2951;47.712;9.400;2024-01-15T12:41:26;2.60;99.90
5850;DHT22;2951;47.712;9.400;2024-01-15T12:43:53;2.40;99.90
5850;DHT22;2951;47.712;9.400;2024-01-15T12:46:20;2.30;99.90
5850;DHT22;2951;47.712;9.400;2024-01-15T12:48:49;2.30;99.90
5850;DHT22;2951;47.712;9.400;2024-01-15T12:51:16;2.30;99.90
5850;DHT22;2951;47.712;9.400;2024-01-15T12:53:43;2.20;99.90
5850;DHT22;2951;47.712;9.400;2024-01-15T12:56:09;2.20;99.90
5850;DHT22;2951;47.712;9.400;2024-01-15T12:58:36;2.20;99.90
5850;DHT22;2951;47.712;9.400;2024-01-15T13:01:03;2.20;99.90
5850;DHT22;2951;47.712;9.400;2024-01-15T13:03:30;2.30;99.90
5850;DHT22;2951;47.712;9.400;2024-01-15T13:05:57;2.40;99.90
5850;DHT22;2951;47.712;9.400;2024-01-15T13:08:24;2.50;99.90
5850;DHT22;2951;47.712;9.400;2024-01-15T13:10:53;2.50;99.90
5850;DHT22;2951;47.712;9.400;2024-01-15T13:13:24;2.40;99.90
5850;DHT22;2951;47.712;9.400;2024-01-15T13:15:54;2.30;99.90
5850;DHT22;2951;47.712;9.400;2024-01-15T13:18:22;2.30;99.90
5850;DHT22;2951;47.712;9.400;2024-01-15T13:20:48;2.30;99.90
5850;DHT22;2951;47.712;9.400;2024-01-15T13:23:18;2.30;99.90
5850;DHT22;2951;47.712;9.400;2024-01-15T13:25:44;2.40;99.90
5850;DHT22;2951;47.712;9.400;2024-01-15T13:28:11;2.60;99.90
5850;DHT22;2951;47.712;9.400;2024-01-15T13:30:38;2.70;99.90
5850;DHT22;2951;47.712;9.400;2024-01-15T13:33:05;2.80;99.90
5850;DHT22;2951;47.712;9.400;2024-01-15T13:35:32;3.00;99.90
5850;DHT22;2951;47.712;9.400;2024-01-15T13:38:01;2.80;99.90
5850;DHT22;2951;47.712;9.400;2024-01-15T13:40:28;2.70;99.90
5850;DHT22;2951;47.712;9.400;2024-01-15T13:42:55;2.60;99.90
5850;DHT22;2951;47.712;9.400;2024-01-15T13:45:23;2.70;99.90
5850;DHT22;2951;47.712;9.400;2024-01-15T13:47:50;2.60;99.90
5850;DHT22;2951;47.712;9.400;2024-01-15T13:50:17;2.60;99.90
5850;DHT22;2951;47.712;9.400;2024-01-15T13:52:43;2.70;99.90
5850;DHT22;2951;47.712;9.400;2024-01-15T13:55:12;2.70;99.90
5850;DHT22;2951;47.712;9.400;2024-01-15T13:57:39;2.80;99.90
5850;DHT22;2951;47.712;9.400;2024-01-15T14:00:09;2.80;99.90
5850;DHT22;2951;47.712;9.400;2024-01-15T14:02:38;2.80;99.90
5850;DHT22;2951;47.712;9.400;2024-01-15T14:05:08;2.80;99.90
5850;DHT22;2951;47.712;9.400;2024-01-15T14:07:35;2.80;99.90
5850;DHT22;2951;47.712;9.400;2024-01-15T14:10:01;2.90;99.90
5850;DHT22;2951;47.712;9.400;2024-01-15T14:12:28;3.10;99.90
5850;DHT22;2951;47.712;9.400;2024-01-15T14:14:59;3.20;99.90
5850;DHT22;2951;47.712;9.400;2024-01-15T14:17:30;3.20;99.90
5850;DHT22;2951;47.712;9.400;2024-01-15T14:19:57;3.10;99.90
5850;DHT22;2951;47.712;9.400;2024-01-15T14:22:23;3.20;99.90
5850;DHT22;2951;47.712;9.400;2024-01-15T14:24:50;3.30;99.90
5850;DHT22;2951;47.712;9.400;2024-01-15T14:27:17;3.20;99.90
5850;DHT22;2951;47.712;9.400;2024-01-15T14:29:44;3.20;99.90
5850;DHT22;2951;47.712;9.400;2024-01-15T14:32:12;3.10;99.90
5850;DHT22;2951;47.712;9.400;2024-01-15T14:34:41;3.00;99.90
5850;DHT22;2951;47.712;9.400;2024-01-15T14:37:09;3.00;99.90
5850;DHT22;2951;47.712;9.400;2024-01-15T14:39:40;3.00;99.90
5850;DHT22;2951;47.712;9.400;2024-01-15T14:42:07;3.00;99.90
5850;DHT22;2951;47.712;9.400;2024-01-15T14:44:34;3.00;99.90
5850;DHT22;2951;47.712;9.400;2024-01-15T14:47:01;2.90;99.90
5850;DHT22;2951;47.712;9.400;2024-01-15T14:49:28;2.90;99.90
5850;DHT22;2951;47.712;9.400;2024-01-15T14:51:55;2.70;99.90
5850;DHT22;2951;47.712;9.400;2024-01-15T14:54:21;2.70;99.90
5850;DHT22;2951;47.712;9.400;2024-01-15T14:56:51;2.60;99.90
5850;DHT22;2951;47.712;9.400;2024-01-15T14:59:17;2.50;99.90
5850;DHT22;2951;47.712;9.400;2024-01-15T15:01:44;2.50;99.90
5850;DHT22;2951;47.712;9.400;2024-01-15T15:04:11;2.40;99.90
5850;DHT22;2951;47.712;9.400;2024-01-15T15:06:38;2.40;99.90
5850;DHT22;2951;47.712;9.400;2024-01-15T15:09:05;2.40;99.90
5850;DHT22;2951;47.712;9.400;2024-01-15T15:11:36;2.50;99.90
5850;DHT22;2951;47.712;9.400;2024-01-15T15:14:04;2.50;99.90
5850;DHT22;2951;47.712;9.400;2024-01-15T15:16:34;2.40;99.90
5850;DHT22;2951;47.712;9.400;2024-01-15T15:19:16;2.40;99.90
5850;DHT22;2951;47.712;9.400;2024-01-15T15:21:44;2.40;99.90
5850;DHT22;2951;47.712;9.400;2024-01-15T15:24:13;2.40;99.90
5850;DHT22;2951;47.712;9.400;2024-01-15T15:26:39;2.40;99.90
5850;DHT22;2951;47.712;9.400;2024-01-15T15:29:06;2.50;99.90
5850;DHT22;2951;47.712;9.400;2024-01-15T15:31:33;2.40;99.90
5850;DHT22;2951;47.712;9.400;2024-01-15T15:34:00;2.40;99.90
5850;DHT22;2951;47.712;9.400;2024-01-15T15:36:26;2.30;99.90
5850;DHT22;2951;47.712;9.400;2024-01-15T15:38:54;2.20;99.90
5850;DHT22;2951;47.712;9.400;2024-01-15T15:41:24;2.30;99.90
5850;DHT22;2951;47.712;9.400;2024-01-15T15:43:52;2.20;99.90
5850;DHT22;2951;47.712;9.400;2024-01-15T15:46:20;2.20;99.90
5850;DHT22;2951;47.712;9.400;2024-01-15T15:48:46;2.20;99.90
5850;DHT22;2951;47.712;9.400;2024-01-15T15:51:13;2.10;99.90
5850;DHT22;2951;47.712;9.400;2024-01-15T15:53:41;2.10;99.90
5850;DHT22;2951;47.712;9.400;2024-01-15T15:56:08;2.10;99.90
5850;DHT22;2951;47.712;9.400;2024-01-15T15:58:34;2.10;99.90
5850;DHT22;2951;47.712;9.400;2024-01-15T16:01:01;2.10;99.90
5850;DHT22;2951;47.712;9.400;2024-01-15T16:03:28;2.00;99.90
5850;DHT22;2951;47.712;9.400;2024-01-15T16:05:55;2.10;99.90
5850;DHT22;2951;47.712;9.400;2024-01-15T16:08:21;2.00;99.90
5850;DHT22;2951;47.712;9.400;2024-01-15T16:10:48;2.10;99.90
5850;DHT22;2951;47.712;9.400;2024-01-15T16:13:18;2.00;99.90
5850;DHT22;2951;47.712;9.400;2024-01-15T16:15:46;2.00;99.90
5850;DHT22;2951;47.712;9.400;2024-01-15T16:18:13;2.00;99.90
5850;DHT22;2951;47.712;9.400;2024-01-15T16:21:00;2.10;99.90
5850;DHT22;2951;47.712;9.400;2024-01-15T16:23:49;2.10;99.90
5850;DHT22;2951;47.712;9.400;2024-01-15T16:26:37;2.00;99.90
5850;DHT22;2951;47.712;9.400;2024-01-15T16:29:04;2.00;99.90
5850;DHT22;2951;47.712;9.400;2024-01-15T16:31:32;2.00;99.90
5850;DHT22;2951;47.712;9.400;2024-01-15T16:33:59;1.90;99.90
5850;DHT22;2951;47.712;9.400;2024-01-15T16:36:32;1.90;99.90